createdAt,value
2018-08-25T00:01:03.451Z,15.80
2018-08-25T00:03:31.779Z,15.80
2018-08-25T00:06:00.089Z,15.80
2018-08-25T00:08:28.412Z,15.90
2018-08-25T00:10:56.701Z,15.80
2018-08-25T00:13:25.042Z,15.80
2018-08-25T00:15:53.343Z,15.70
2018-08-25T00:18:21.647Z,15.80
2018-08-25T00:20:49.907Z,15.80
2018-08-25T00:23:18.201Z,15.80
2018-08-25T00:25:46.476Z,15.80
2018-08-25T00:28:14.775Z,15.80
2018-08-25T00:30:48.390Z,15.70
2018-08-25T00:33:16.683Z,15.70
2018-08-25T00:35:44.958Z,15.70
2018-08-25T00:38:13.411Z,15.70
2018-08-25T00:40:41.684Z,15.70
2018-08-25T00:43:10.179Z,15.60
2018-08-25T00:45:38.418Z,15.70
2018-08-25T00:48:06.870Z,15.70
2018-08-25T00:50:35.158Z,15.60
2018-08-25T00:53:03.867Z,15.70
2018-08-25T00:55:32.148Z,15.70
2018-08-25T00:58:00.501Z,15.80
2018-08-25T01:00:28.845Z,15.80
2018-08-25T01:02:57.144Z,15.70
2018-08-25T01:05:25.432Z,15.60
2018-08-25T01:07:53.672Z,15.50
2018-08-25T01:10:22.252Z,15.50
2018-08-25T01:12:50.559Z,15.50
2018-08-25T01:15:18.839Z,15.40
2018-08-25T01:17:47.123Z,15.30
2018-08-25T01:20:15.383Z,15.30
2018-08-25T01:22:50.491Z,15.30
2018-08-25T01:25:18.765Z,15.30
2018-08-25T01:27:47.348Z,15.30
2018-08-25T01:30:15.571Z,15.40
2018-08-25T01:32:43.819Z,15.30
2018-08-25T01:35:12.123Z,15.30
2018-08-25T01:37:40.456Z,15.30
2018-08-25T01:40:08.818Z,15.20
2018-08-25T01:42:37.120Z,15.20
2018-08-25T01:45:05.394Z,15.10
2018-08-25T01:47:33.658Z,15.20
2018-08-25T01:50:01.953Z,15.20
2018-08-25T01:52:30.212Z,15.20
2018-08-25T01:54:58.492Z,15.30
2018-08-25T01:57:26.792Z,15.20
2018-08-25T01:59:55.088Z,15.20
2018-08-25T02:02:23.377Z,15.20
2018-08-25T02:04:51.654Z,15.10
2018-08-25T02:07:19.899Z,15.10
2018-08-25T02:09:48.152Z,15.10
2018-08-25T02:12:16.467Z,15.10
2018-08-25T02:14:44.875Z,15.00
2018-08-25T02:17:13.547Z,15.10
2018-08-25T02:19:41.822Z,15.10
2018-08-25T02:22:10.367Z,15.10
2018-08-25T02:24:38.636Z,15.10
2018-08-25T02:27:06.921Z,15.20
2018-08-25T02:29:35.227Z,15.10
2018-08-25T02:32:03.550Z,15.20
2018-08-25T02:34:31.823Z,15.10
2018-08-25T02:37:00.068Z,15.20
2018-08-25T02:39:28.393Z,15.10
2018-08-25T02:41:56.616Z,15.10
2018-08-25T02:44:24.891Z,15.20
2018-08-25T02:46:53.258Z,15.10
2018-08-25T02:49:21.546Z,15.00
2018-08-25T02:51:49.943Z,15.00
2018-08-25T02:54:18.282Z,15.00
2018-08-25T02:56:46.519Z,14.90
2018-08-25T02:59:14.883Z,14.90
2018-08-25T03:01:43.179Z,14.90
2018-08-25T03:04:11.472Z,15.00
2018-08-25T03:06:39.878Z,15.00
2018-08-25T03:09:09.931Z,15.10
2018-08-25T03:11:38.213Z,15.00
2018-08-25T03:14:06.554Z,15.10
2018-08-25T03:16:34.837Z,15.10
2018-08-25T03:19:03.273Z,15.10
2018-08-25T03:21:31.823Z,15.00
2018-08-25T03:24:00.165Z,14.90
2018-08-25T03:26:28.500Z,14.90
2018-08-25T03:28:56.848Z,14.80
2018-08-25T03:31:25.215Z,14.80
2018-08-25T03:33:53.458Z,14.80
2018-08-25T03:36:21.733Z,14.80
2018-08-25T03:38:50.101Z,14.80
2018-08-25T03:41:18.382Z,14.60
2018-08-25T03:43:46.711Z,14.50
2018-08-25T03:46:14.995Z,14.50
2018-08-25T03:48:43.287Z,14.40
2018-08-25T03:51:11.583Z,14.50
2018-08-25T03:53:39.838Z,14.50
2018-08-25T03:56:08.294Z,14.20
2018-08-25T03:58:36.584Z,14.30
2018-08-25T04:01:05.149Z,14.40
2018-08-25T04:03:33.480Z,14.20
2018-08-25T04:06:01.802Z,14.00
2018-08-25T04:08:30.098Z,14.10
2018-08-25T04:10:58.460Z,13.90
2018-08-25T04:13:26.753Z,13.70
2018-08-25T04:15:55.025Z,13.70
2018-08-25T04:18:23.344Z,13.70
2018-08-25T04:20:51.619Z,13.50
2018-08-25T04:23:19.876Z,13.50
2018-08-25T04:25:48.164Z,13.40
2018-08-25T04:28:16.446Z,13.40
2018-08-25T04:30:44.705Z,13.40
2018-08-25T04:33:13.062Z,13.40
2018-08-25T04:35:41.422Z,13.40
2018-08-25T04:38:09.723Z,13.50
2018-08-25T04:40:38.002Z,13.40
2018-08-25T04:43:06.444Z,13.40
2018-08-25T04:45:34.773Z,13.40
2018-08-25T04:48:03.069Z,13.60
2018-08-25T04:50:31.452Z,13.60
2018-08-25T04:52:59.756Z,13.70
2018-08-25T04:55:28.122Z,13.70
2018-08-25T04:57:56.403Z,13.60
2018-08-25T05:00:24.700Z,13.90
2018-08-25T05:02:52.960Z,13.80
2018-08-25T05:05:21.386Z,13.70
2018-08-25T05:07:49.706Z,13.70
2018-08-25T05:10:18.046Z,13.60
2018-08-25T05:12:46.352Z,13.60
2018-08-25T05:15:14.728Z,13.80
2018-08-25T05:17:43.047Z,13.90
2018-08-25T05:20:11.344Z,14.00
2018-08-25T05:22:39.658Z,14.00
2018-08-25T05:25:08.296Z,13.90
2018-08-25T05:27:36.822Z,13.80
2018-08-25T05:30:06.182Z,13.90
2018-08-25T05:32:34.481Z,13.70
2018-08-25T05:35:02.748Z,13.70
2018-08-25T05:37:31.091Z,13.70
2018-08-25T05:39:59.349Z,13.60
2018-08-25T05:42:27.650Z,13.60
2018-08-25T05:44:55.969Z,13.50
2018-08-25T05:47:24.303Z,13.40
2018-08-25T05:49:52.619Z,13.40
2018-08-25T05:52:20.931Z,13.40
2018-08-25T05:54:49.286Z,13.40
2018-08-25T05:57:17.847Z,13.60
2018-08-25T05:59:46.149Z,13.50
2018-08-25T06:02:14.512Z,13.50
2018-08-25T06:04:42.830Z,13.40
2018-08-25T06:07:11.135Z,13.40
2018-08-25T06:09:39.425Z,13.50
2018-08-25T06:12:07.690Z,13.60
2018-08-25T06:14:35.980Z,13.40
2018-08-25T06:17:04.227Z,13.40
2018-08-25T06:19:32.608Z,13.50
2018-08-25T06:22:00.927Z,13.60
2018-08-25T06:24:29.239Z,13.20
2018-08-25T06:26:57.573Z,13.20
2018-08-25T06:29:25.865Z,13.30
2018-08-25T06:31:54.165Z,13.40
2018-08-25T06:34:22.460Z,13.40
2018-08-25T06:36:50.770Z,13.40
2018-08-25T06:39:19.073Z,13.50
2018-08-25T06:41:47.364Z,13.50
2018-08-25T06:44:22.532Z,13.60
2018-08-25T06:46:50.889Z,13.70
2018-08-25T06:49:19.143Z,13.60
2018-08-25T06:51:47.443Z,13.70
2018-08-25T06:54:15.708Z,13.80
2018-08-25T06:56:44.014Z,13.70
2018-08-25T06:59:12.297Z,13.60
2018-08-25T07:01:40.564Z,13.70
2018-08-25T07:04:08.919Z,13.30
2018-08-25T07:06:37.172Z,13.30
2018-08-25T07:09:08.181Z,13.30
2018-08-25T07:11:36.558Z,13.30
2018-08-25T07:14:04.859Z,13.30
2018-08-25T07:16:33.213Z,13.40
2018-08-25T07:19:01.548Z,13.30
2018-08-25T07:21:29.783Z,13.40
2018-08-25T07:23:58.085Z,13.50
2018-08-25T07:26:26.387Z,13.70
2018-08-25T07:28:54.672Z,13.90
2018-08-25T07:31:22.935Z,13.70
2018-08-25T07:33:51.218Z,13.80
2018-08-25T07:36:19.662Z,13.80
2018-08-25T07:38:47.927Z,14.00
2018-08-25T07:41:16.236Z,14.00
2018-08-25T07:43:44.537Z,13.90
2018-08-25T07:46:12.859Z,14.00
2018-08-25T07:48:41.204Z,13.80
2018-08-25T07:51:09.530Z,13.90
2018-08-25T07:53:37.979Z,14.00
2018-08-25T07:56:06.633Z,14.00
2018-08-25T07:58:34.991Z,14.00
2018-08-25T08:01:03.292Z,13.80
2018-08-25T08:03:31.562Z,13.80
2018-08-25T08:05:59.835Z,13.80
2018-08-25T08:08:28.109Z,13.50
2018-08-25T08:10:56.403Z,13.10
2018-08-25T08:13:24.670Z,12.90
2018-08-25T08:15:52.940Z,12.70
2018-08-25T08:18:21.193Z,12.80
2018-08-25T08:20:49.490Z,12.70
2018-08-25T08:23:17.776Z,12.40
2018-08-25T08:25:46.143Z,12.40
2018-08-25T08:28:14.530Z,12.40
2018-08-25T08:30:42.985Z,12.40
2018-08-25T08:33:11.636Z,12.50
2018-08-25T08:35:39.906Z,12.60
2018-08-25T08:38:08.333Z,12.80
2018-08-25T08:43:57.791Z,13.20
2018-08-25T08:46:31.568Z,13.60
2018-08-25T08:48:59.890Z,13.60
2018-08-25T08:51:28.203Z,13.50
2018-08-25T08:53:56.511Z,13.40
2018-08-25T08:56:24.793Z,13.40
2018-08-25T08:58:53.096Z,13.30
2018-08-25T09:01:21.825Z,13.20
2018-08-25T09:03:50.195Z,13.40
2018-08-25T09:06:18.455Z,13.50
2018-08-25T09:08:46.791Z,13.60
2018-08-25T09:11:15.406Z,13.60
2018-08-25T09:13:43.634Z,13.50
2018-08-25T09:16:11.896Z,13.50
2018-08-25T09:18:40.172Z,13.50
2018-08-25T09:21:08.486Z,13.40
2018-08-25T09:23:36.822Z,13.40
2018-08-25T09:26:05.209Z,13.30
2018-08-25T09:28:33.466Z,13.30
2018-08-25T09:31:01.725Z,13.30
2018-08-25T09:33:30.012Z,13.40
2018-08-25T09:35:58.393Z,13.50
2018-08-25T09:38:26.791Z,13.50
2018-08-25T09:40:55.139Z,13.80
2018-08-25T09:43:23.523Z,14.00
2018-08-25T09:45:51.784Z,14.20
2018-08-25T09:48:20.152Z,14.30
2018-08-25T09:50:48.475Z,14.50
2018-08-25T09:53:16.732Z,14.70
2018-08-25T09:55:44.996Z,14.60
2018-08-25T09:58:13.342Z,14.70
2018-08-25T10:00:41.621Z,14.90
2018-08-25T10:03:09.893Z,14.80
2018-08-25T10:05:38.187Z,14.90
2018-08-25T10:08:06.471Z,14.90
2018-08-25T10:10:34.755Z,14.90
2018-08-25T10:13:03.028Z,14.80
2018-08-25T10:15:31.408Z,14.70
2018-08-25T10:17:59.690Z,14.90
2018-08-25T10:20:27.950Z,14.90
2018-08-25T10:22:56.298Z,14.80
2018-08-25T10:25:24.584Z,14.90
2018-08-25T10:27:52.868Z,15.00
2018-08-25T10:30:21.142Z,14.90
2018-08-25T10:32:49.422Z,15.30
2018-08-25T10:35:17.715Z,15.40
2018-08-25T10:37:46.005Z,15.40
2018-08-25T10:40:14.621Z,15.30
2018-08-25T10:42:42.906Z,15.30
2018-08-25T10:45:11.351Z,15.50
2018-08-25T10:47:39.602Z,15.50
2018-08-25T10:50:07.949Z,15.50
2018-08-25T10:52:36.324Z,15.40
2018-08-25T10:55:05.584Z,15.50
2018-08-25T10:57:33.826Z,15.40
2018-08-25T11:00:02.154Z,15.50
2018-08-25T11:02:30.371Z,15.60
2018-08-25T11:04:58.636Z,15.80
2018-08-25T11:07:26.887Z,15.90
2018-08-25T11:09:55.210Z,15.80
2018-08-25T11:12:23.507Z,15.60
2018-08-25T11:14:51.936Z,15.90
2018-08-25T11:17:20.179Z,16.20
2018-08-25T11:19:48.472Z,16.40
2018-08-25T11:22:16.726Z,16.20
2018-08-25T11:24:44.979Z,16.10
2018-08-25T11:27:13.399Z,16.20
2018-08-25T11:29:41.761Z,16.30
2018-08-25T11:32:10.084Z,16.40
2018-08-25T11:34:38.336Z,16.60
2018-08-25T11:37:07.079Z,17.00
2018-08-25T11:39:35.310Z,17.40
2018-08-25T11:42:03.581Z,17.30
2018-08-25T11:44:31.890Z,17.20
2018-08-25T11:47:00.164Z,16.90
2018-08-25T11:49:28.439Z,16.70
2018-08-25T11:51:56.698Z,16.70
2018-08-25T11:54:24.938Z,16.50
2018-08-25T11:56:53.225Z,16.60
2018-08-25T11:59:21.613Z,16.70
2018-08-25T12:01:49.907Z,16.90
2018-08-25T12:04:18.483Z,16.90
2018-08-25T12:06:46.856Z,17.10
2018-08-25T12:09:15.117Z,17.10
2018-08-25T12:11:43.456Z,17.10
2018-08-25T12:14:11.854Z,17.30
2018-08-25T12:16:40.139Z,17.40
2018-08-25T12:19:08.428Z,17.30
2018-08-25T12:21:36.706Z,17.20
2018-08-25T12:24:05.059Z,17.10
2018-08-25T12:26:33.364Z,17.50
2018-08-25T12:29:01.662Z,17.90
2018-08-25T12:31:30.559Z,17.90
2018-08-25T12:33:58.833Z,18.20
2018-08-25T12:36:27.719Z,18.40
2018-08-25T12:38:56.040Z,18.10
2018-08-25T12:41:24.423Z,18.00
2018-08-25T12:43:52.722Z,18.30
2018-08-25T12:46:20.985Z,18.30
2018-08-25T12:48:49.291Z,18.30
2018-08-25T12:51:17.581Z,18.30
2018-08-25T12:53:45.866Z,18.50
2018-08-25T12:56:14.212Z,18.80
2018-08-25T12:58:42.516Z,19.00
2018-08-25T13:01:10.793Z,19.20
2018-08-25T13:03:39.153Z,19.00
2018-08-25T13:06:07.472Z,18.80
2018-08-25T13:08:35.745Z,18.50
2018-08-25T13:11:04.002Z,18.10
2018-08-25T13:13:32.381Z,18.00
2018-08-25T13:16:00.677Z,17.90
2018-08-25T13:18:29.903Z,18.00
2018-08-25T13:20:58.211Z,18.00
2018-08-25T13:23:26.552Z,17.90
2018-08-25T13:25:54.780Z,17.80
2018-08-25T13:28:23.080Z,16.70
2018-08-25T13:30:51.380Z,15.80
2018-08-25T13:33:19.605Z,15.10
2018-08-25T13:35:47.873Z,14.60
2018-08-25T13:38:16.317Z,14.20
2018-08-25T13:40:44.543Z,13.90
2018-08-25T13:43:12.825Z,13.60
2018-08-25T13:45:41.052Z,13.40
2018-08-25T13:48:09.328Z,13.30
2018-08-25T13:50:37.611Z,13.40
2018-08-25T13:53:05.913Z,13.50
2018-08-25T13:55:35.752Z,13.60
2018-08-25T13:58:04.018Z,13.70
2018-08-25T14:00:32.314Z,13.80
2018-08-25T14:03:00.576Z,14.00
2018-08-25T14:05:28.939Z,14.10
2018-08-25T14:07:57.230Z,14.10
2018-08-25T14:10:25.496Z,14.10
2018-08-25T14:12:53.804Z,13.90
2018-08-25T14:15:22.236Z,13.90
2018-08-25T14:17:50.486Z,14.10
2018-08-25T14:20:18.865Z,13.90
2018-08-25T14:22:47.094Z,14.00
2018-08-25T14:25:15.423Z,14.00
2018-08-25T14:27:43.705Z,13.90
2018-08-25T14:30:11.995Z,13.90
2018-08-25T14:32:40.601Z,13.90
2018-08-25T14:35:08.975Z,14.10
2018-08-25T14:37:37.233Z,14.10
2018-08-25T14:40:05.729Z,14.60
2018-08-25T14:42:34.027Z,15.10
2018-08-25T14:45:02.269Z,15.20
2018-08-25T14:47:30.624Z,15.60
2018-08-25T14:49:58.896Z,15.30
2018-08-25T14:52:27.172Z,14.90
2018-08-25T14:54:55.434Z,14.80
2018-08-25T14:57:23.747Z,15.00
2018-08-25T14:59:52.072Z,14.90
2018-08-25T15:02:20.508Z,15.00
2018-08-25T15:04:48.859Z,15.20
2018-08-25T15:07:17.312Z,15.20
2018-08-25T15:09:45.638Z,15.40
2018-08-25T15:12:13.899Z,15.40
2018-08-25T15:14:42.193Z,15.40
2018-08-25T15:17:10.491Z,15.60
2018-08-25T15:19:38.810Z,15.50
2018-08-25T15:22:07.130Z,15.40
2018-08-25T15:24:35.392Z,15.50
2018-08-25T15:27:03.950Z,15.90
2018-08-25T15:29:32.222Z,15.80
2018-08-25T15:32:00.497Z,16.10
2018-08-25T15:34:28.814Z,16.30
2018-08-25T15:36:57.091Z,16.10
2018-08-25T15:39:25.376Z,16.30
2018-08-25T15:41:53.711Z,16.20
2018-08-25T15:44:22.151Z,16.30
2018-08-25T15:46:50.332Z,16.50
2018-08-25T15:49:18.606Z,16.60
2018-08-25T15:51:46.906Z,16.70
2018-08-25T15:54:15.138Z,16.90
2018-08-25T15:56:43.484Z,17.10
2018-08-25T15:59:11.873Z,16.90
2018-08-25T16:01:40.395Z,16.50
2018-08-25T16:04:08.690Z,16.10
2018-08-25T16:06:36.955Z,16.00
2018-08-25T16:09:08.122Z,15.90
2018-08-25T16:11:36.629Z,15.70
2018-08-25T16:14:04.860Z,15.70
2018-08-25T16:16:33.109Z,15.60
2018-08-25T16:19:01.542Z,15.70
2018-08-25T16:21:29.940Z,15.70
2018-08-25T16:23:58.257Z,15.50
2018-08-25T16:26:26.566Z,15.40
2018-08-25T16:28:54.870Z,15.20
2018-08-25T16:31:23.439Z,14.90
2018-08-25T16:33:51.736Z,14.70
2018-08-25T16:36:20.085Z,14.60
2018-08-25T16:38:48.382Z,14.50
2018-08-25T16:41:16.624Z,14.30
2018-08-25T16:43:44.939Z,14.10
2018-08-25T16:46:13.242Z,14.20
2018-08-25T16:48:41.596Z,14.20
2018-08-25T16:51:09.945Z,14.40
2018-08-25T16:53:38.325Z,14.70
2018-08-25T16:56:06.850Z,14.90
2018-08-25T16:58:35.179Z,15.10
2018-08-25T17:01:03.481Z,15.20
2018-08-25T17:03:31.906Z,15.30
2018-08-25T17:06:00.188Z,15.60
2018-08-25T17:08:28.504Z,15.70
2018-08-25T17:10:56.868Z,15.70
2018-08-25T17:13:25.152Z,15.70
2018-08-25T17:15:53.416Z,15.90
2018-08-25T17:18:21.706Z,15.70
2018-08-25T17:20:50.004Z,15.70
2018-08-25T17:23:18.291Z,15.70
2018-08-25T17:25:46.555Z,15.40
2018-08-25T17:28:14.973Z,15.10
2018-08-25T17:30:43.337Z,14.80
2018-08-25T17:33:11.765Z,14.70
2018-08-25T17:35:40.156Z,14.50
2018-08-25T17:38:08.527Z,14.40
2018-08-25T17:40:36.870Z,14.30
2018-08-25T17:43:05.165Z,14.30
2018-08-25T17:45:33.486Z,14.40
2018-08-25T17:48:01.779Z,14.30
2018-08-25T17:50:30.098Z,14.30
2018-08-25T17:52:58.416Z,14.30
2018-08-25T17:55:26.680Z,14.20
2018-08-25T17:57:54.956Z,14.30
2018-08-25T18:00:23.281Z,14.20
2018-08-25T18:02:51.635Z,14.20
2018-08-25T18:05:19.956Z,14.20
2018-08-25T18:07:48.336Z,14.20
2018-08-25T18:10:16.713Z,14.10
2018-08-25T18:12:45.015Z,14.10
2018-08-25T18:15:13.251Z,14.10
2018-08-25T18:17:41.645Z,14.00
2018-08-25T18:20:09.865Z,14.10
2018-08-25T18:22:38.142Z,14.00
2018-08-25T18:25:06.433Z,13.90
2018-08-25T18:27:34.721Z,13.70
2018-08-25T18:30:03.046Z,13.60
2018-08-25T18:32:31.318Z,13.70
2018-08-25T18:34:59.539Z,13.70
2018-08-25T18:37:27.821Z,13.60
2018-08-25T18:39:56.118Z,13.60
2018-08-25T18:42:24.493Z,13.60
2018-08-25T18:44:52.797Z,13.60
2018-08-25T18:47:21.069Z,13.50
2018-08-25T18:49:49.374Z,13.40
2018-08-25T18:52:17.701Z,13.50
2018-08-25T18:54:46.063Z,13.60
2018-08-25T18:57:14.297Z,13.40
2018-08-25T18:59:42.610Z,13.40
2018-08-25T19:02:10.958Z,13.40
2018-08-25T19:04:39.265Z,13.30
2018-08-25T19:07:07.548Z,13.30
2018-08-25T19:09:35.952Z,13.40
2018-08-25T19:12:04.284Z,13.20
2018-08-25T19:14:32.606Z,13.20
2018-08-25T19:17:01.063Z,13.10
2018-08-25T19:19:29.501Z,13.20
2018-08-25T19:21:57.888Z,13.00
2018-08-25T19:24:26.598Z,13.00
2018-08-25T19:26:54.756Z,13.10
2018-08-25T19:29:23.004Z,12.90
2018-08-25T19:31:51.280Z,12.90
2018-08-25T19:34:19.603Z,12.90
2018-08-25T19:36:47.814Z,13.00
2018-08-25T19:39:16.087Z,12.90
2018-08-25T19:41:44.384Z,13.00
2018-08-25T19:44:12.644Z,13.00
2018-08-25T19:46:41.072Z,12.90
2018-08-25T19:49:09.375Z,13.00
2018-08-25T19:51:37.852Z,13.00
2018-08-25T19:54:06.201Z,12.90
2018-08-25T19:56:34.592Z,13.00
2018-08-25T19:59:03.017Z,12.90
2018-08-25T20:01:31.411Z,13.00
2018-08-25T20:03:59.770Z,12.80
2018-08-25T20:06:28.028Z,12.80
2018-08-25T20:08:56.426Z,12.80
2018-08-25T20:11:24.816Z,12.80
2018-08-25T20:13:53.107Z,12.70
2018-08-25T20:16:21.489Z,12.70
2018-08-25T20:18:49.849Z,12.70
2018-08-25T20:21:18.080Z,12.60
2018-08-25T20:23:46.382Z,12.50
2018-08-25T20:26:14.734Z,12.60
2018-08-25T20:28:43.042Z,12.50
2018-08-25T20:31:18.094Z,12.50
2018-08-25T20:33:46.364Z,12.50
2018-08-25T20:36:14.755Z,12.50
2018-08-25T20:38:43.037Z,12.50
2018-08-25T20:41:11.314Z,12.50
2018-08-25T20:43:39.780Z,12.30
2018-08-25T20:46:08.094Z,12.20
2018-08-25T20:48:36.373Z,12.30
2018-08-25T20:51:04.671Z,12.30
2018-08-25T20:53:32.893Z,12.20
2018-08-25T20:56:01.216Z,12.10
2018-08-25T20:58:29.577Z,12.10
2018-08-25T21:00:57.920Z,12.00
2018-08-25T21:03:26.203Z,12.10
2018-08-25T21:05:54.452Z,12.00
2018-08-25T21:08:22.753Z,11.90
2018-08-25T21:10:51.158Z,12.00
2018-08-25T21:13:19.438Z,11.90
2018-08-25T21:15:47.775Z,11.80
2018-08-25T21:18:16.075Z,11.90
2018-08-25T21:20:44.363Z,11.90
2018-08-25T21:23:12.660Z,11.80
2018-08-25T21:25:40.958Z,11.70
2018-08-25T21:28:09.209Z,11.70
2018-08-25T21:30:37.597Z,11.70
2018-08-25T21:33:05.855Z,11.70
2018-08-25T21:35:34.141Z,11.90
2018-08-25T21:38:02.432Z,11.80
2018-08-25T21:40:30.716Z,11.90
2018-08-25T21:42:59.108Z,11.80
2018-08-25T21:45:27.401Z,11.60
2018-08-25T21:47:55.878Z,11.60
2018-08-25T21:50:24.141Z,11.50
2018-08-25T21:52:52.464Z,11.60
2018-08-25T21:55:20.882Z,11.70
2018-08-25T21:57:49.135Z,11.80
2018-08-25T22:00:17.580Z,11.60
2018-08-25T22:02:45.854Z,11.60
2018-08-25T22:05:14.159Z,11.70
2018-08-25T22:07:42.478Z,11.70
2018-08-25T22:10:10.772Z,11.80
2018-08-25T22:12:39.013Z,11.70
2018-08-25T22:15:07.302Z,11.70
2018-08-25T22:17:35.614Z,11.70
2018-08-25T22:20:03.882Z,11.80
2018-08-25T22:22:32.216Z,11.70
2018-08-25T22:25:00.535Z,11.70
2018-08-25T22:27:28.812Z,11.70
2018-08-25T22:29:57.305Z,11.40
2018-08-25T22:32:26.251Z,11.40
2018-08-25T22:34:54.583Z,11.30
2018-08-25T22:37:22.887Z,11.20
2018-08-25T22:39:51.207Z,11.20
2018-08-25T22:42:19.770Z,11.10
2018-08-25T22:44:48.090Z,11.30
2018-08-25T22:47:19.378Z,11.40
2018-08-25T22:49:47.664Z,11.40
2018-08-25T22:52:15.962Z,11.30
2018-08-25T22:54:44.300Z,11.30
2018-08-25T22:57:12.710Z,11.10
2018-08-25T22:59:40.979Z,11.10
2018-08-25T23:02:09.266Z,11.10
2018-08-25T23:04:37.629Z,11.10
2018-08-25T23:07:05.959Z,11.20
2018-08-25T23:09:34.289Z,11.20
2018-08-25T23:12:02.614Z,11.10
2018-08-25T23:14:30.886Z,11.00
2018-08-25T23:16:59.318Z,11.10
2018-08-25T23:19:27.599Z,11.20
2018-08-25T23:21:55.920Z,11.10
2018-08-25T23:24:24.195Z,11.10
2018-08-25T23:26:52.518Z,11.00
2018-08-25T23:29:20.814Z,10.90
2018-08-25T23:31:49.088Z,11.10
2018-08-25T23:34:17.390Z,11.00
2018-08-25T23:36:45.712Z,10.90
2018-08-25T23:39:14.075Z,10.80
2018-08-25T23:41:42.409Z,10.90
2018-08-25T23:44:10.818Z,11.00
2018-08-25T23:46:39.168Z,10.80
2018-08-25T23:49:07.773Z,10.80
2018-08-25T23:51:36.115Z,11.10
2018-08-25T23:54:04.384Z,11.10
2018-08-25T23:56:32.962Z,11.10
2018-08-25T23:59:01.270Z,11.10
